Time;durP1;ratioP1;P1;durP2;ratioP2;P2;SDS_P1;SDS_P2;PMS_P1;PMS_P2;Temp;Humidity;BMP_temperature;BMP_pressure;BME280_temperature;BME280_humidity;BME280_pressure;Samples;Min_cycle;Max_cycle;Signal;HPM_P1;HPM_P2
2023/04/12 00:01:01;;;;;;;;;;;21.70;50.30;;;;;;1561549;75;776;-64
2023/04/12 00:03:04;;;;;;;;;;;21.70;50.30;;;;;;1548829;75;745;-66
2023/04/12 00:05:08;;;;;;;;;;;21.70;50.30;;;;;;1539870;75;1231;-66
2023/04/12 00:07:10;;;;;;;;;;;21.70;50.30;;;;;;1556829;74;1497;-67
2023/04/12 00:09:13;;;;;;;;;;;21.70;50.40;;;;;;1555556;75;730;-67
2023/04/12 00:11:15;;;;;;;;;;;21.70;50.40;;;;;;1561969;75;771;-67
2023/04/12 00:13:17;;;;;;;;;;;21.70;50.40;;;;;;1559359;75;746;-67
2023/04/12 00:15:19;;;;;;;;;;;21.70;50.30;;;;;;1543715;75;1948;-66
2023/04/12 00:17:21;;;;;;;;;;;21.70;50.40;;;;;;1528827;76;732;-65
2023/04/12 00:19:24;;;;;;;;;;;21.60;50.20;;;;;;1554850;76;1460;-65
2023/04/12 00:21:27;;;;;;;;;;;21.70;50.40;;;;;;1531742;75;575;-65
2023/04/12 00:23:29;;;;;;;;;;;21.70;50.40;;;;;;1550025;75;1181;-65
2023/04/12 00:25:31;;;;;;;;;;;21.70;50.40;;;;;;1534151;76;704;-65
2023/04/12 00:27:33;;;;;;;;;;;21.70;50.30;;;;;;1546156;76;732;-65
2023/04/12 00:29:35;;;;;;;;;;;21.70;50.40;;;;;;1540373;76;799;-67
2023/04/12 00:31:37;;;;;;;;;;;21.60;50.30;;;;;;1549219;76;703;-67
2023/04/12 00:33:39;;;;;;;;;;;21.70;50.40;;;;;;1550069;75;1623;-67
2023/04/12 00:35:41;;;;;;;;;;;21.70;50.50;;;;;;1541510;75;1920;-67
2023/04/12 00:37:42;;;;;;;;;;;21.60;50.50;;;;;;1544885;76;798;-67
2023/04/12 00:39:44;;;;;;;;;;;21.70;50.60;;;;;;1543249;76;756;-68
2023/04/12 00:41:46;;;;;;;;;;;21.60;50.70;;;;;;1522370;76;754;-65
2023/04/12 00:43:48;;;;;;;;;;;21.60;50.70;;;;;;1551389;75;1092;-65
2023/04/12 00:45:50;;;;;;;;;;;21.60;50.60;;;;;;1537551;76;750;-65
2023/04/12 00:47:52;;;;;;;;;;;21.60;50.70;;;;;;1542949;76;1295;-66
2023/04/12 00:49:54;;;;;;;;;;;21.60;50.60;;;;;;1542912;75;769;-65
2023/04/12 00:52:02;;;;;;;;;;;21.70;50.70;;;;;;1554049;76;689;-65
2023/04/12 00:54:04;;;;;;;;;;;21.70;50.70;;;;;;1550222;75;1670;-65
2023/04/12 00:56:06;;;;;;;;;;;21.60;50.60;;;;;;1533636;76;1913;-65
2023/04/12 00:58:08;;;;;;;;;;;21.70;50.70;;;;;;1542939;76;728;-65
2023/04/12 01:00:11;;;;;;;;;;;21.60;50.60;;;;;;1551107;76;706;-66
2023/04/12 01:02:13;;;;;;;;;;;21.60;50.70;;;;;;1546301;76;1358;-69
2023/04/12 01:04:15;;;;;;;;;;;21.60;50.80;;;;;;1554898;75;1189;-69
2023/04/12 01:06:21;;;;;;;;;;;21.60;51.10;;;;;;1536204;76;709;-69
2023/04/12 01:08:40;;;;;;;;;;;21.60;50.90;;;;;;1545163;76;732;-69
2023/04/12 01:11:01;;;;;;;;;;;21.70;51.00;;;;;;1540075;76;797;-70
2023/04/12 01:13:22;;;;;;;;;;;21.70;51.00;;;;;;1551501;76;802;-69
2023/04/12 01:15:25;;;;;;;;;;;21.70;51.00;;;;;;1530438;76;1939;-69
2023/04/12 01:17:28;;;;;;;;;;;21.70;51.00;;;;;;1546048;76;1684;-69
2023/04/12 01:19:34;;;;;;;;;;;21.70;50.80;;;;;;1539665;75;710;-69
2023/04/12 01:21:44;;;;;;;;;;;21.70;50.90;;;;;;1525928;76;728;-70
2023/04/12 01:23:53;;;;;;;;;;;21.70;50.90;;;;;;1550937;75;1998;-70
2023/04/12 01:26:14;;;;;;;;;;;21.70;51.00;;;;;;1549118;75;1828;-70
2023/04/12 01:28:17;;;;;;;;;;;21.60;50.90;;;;;;1544628;75;650;-70
2023/04/12 01:30:20;;;;;;;;;;;21.60;51.00;;;;;;1551178;76;1985;-70
2023/04/12 01:32:22;;;;;;;;;;;21.60;50.90;;;;;;1555026;76;775;-70
2023/04/12 01:34:24;;;;;;;;;;;21.60;51.00;;;;;;1545307;74;1132;-71
2023/04/12 01:36:26;;;;;;;;;;;21.60;51.00;;;;;;1530707;76;1943;-70
2023/04/12 01:38:28;;;;;;;;;;;21.60;51.00;;;;;;1543859;76;782;-70
2023/04/12 01:40:30;;;;;;;;;;;21.60;51.00;;;;;;1549670;76;718;-70
2023/04/12 01:42:32;;;;;;;;;;;21.60;51.10;;;;;;1552492;76;708;-70
2023/04/12 01:44:34;;;;;;;;;;;21.70;51.10;;;;;;1539735;76;1568;-70
2023/04/12 01:46:36;;;;;;;;;;;21.60;51.00;;;;;;1529706;76;746;-70
2023/04/12 01:48:38;;;;;;;;;;;21.60;51.00;;;;;;1546823;75;784;-68
2023/04/12 01:50:50;;;;;;;;;;;21.60;51.00;;;;;;1547998;76;725;-68
2023/04/12 01:53:00;;;;;;;;;;;21.60;51.00;;;;;;1536549;76;728;-68
2023/04/12 01:55:02;;;;;;;;;;;21.60;51.10;;;;;;1537332;76;1856;-67
2023/04/12 01:57:04;;;;;;;;;;;21.60;51.20;;;;;;1535189;75;777;-68
2023/04/12 01:59:06;;;;;;;;;;;21.60;51.10;;;;;;1542854;76;1523;-66
2023/04/12 02:01:08;;;;;;;;;;;21.60;51.10;;;;;;1546583;76;656;-67
2023/04/12 02:03:11;;;;;;;;;;;21.70;51.10;;;;;;1543802;75;784;-67
2023/04/12 02:05:13;;;;;;;;;;;21.70;50.90;;;;;;1534358;76;1142;-67
2023/04/12 02:07:15;;;;;;;;;;;21.70;50.80;;;;;;1534895;76;811;-67
2023/04/12 02:09:16;;;;;;;;;;;21.60;50.70;;;;;;1540239;76;728;-67
2023/04/12 02:11:18;;;;;;;;;;;21.70;50.80;;;;;;1543281;76;781;-67
2023/04/12 02:13:20;;;;;;;;;;;21.70;50.80;;;;;;1549226;76;1530;-67
2023/04/12 02:15:22;;;;;;;;;;;21.70;50.80;;;;;;1533392;76;1937;-67
2023/04/12 02:17:24;;;;;;;;;;;21.70;51.00;;;;;;1542178;75;1063;-67
2023/04/12 02:19:26;;;;;;;;;;;21.70;50.90;;;;;;1539567;76;715;-67
2023/04/12 02:21:28;;;;;;;;;;;21.60;50.70;;;;;;1534655;76;689;-67
2023/04/12 02:23:30;;;;;;;;;;;21.70;50.80;;;;;;1529243;76;1197;-67
2023/04/12 02:25:32;;;;;;;;;;;21.70;50.80;;;;;;1556841;76;731;-67
2023/04/12 02:27:34;;;;;;;;;;;21.70;50.80;;;;;;1554916;76;1604;-67
2023/04/12 02:29:36;;;;;;;;;;;21.70;50.80;;;;;;1549645;76;693;-67
2023/04/12 02:31:38;;;;;;;;;;;21.70;50.70;;;;;;1541947;75;800;-66
2023/04/12 02:33:41;;;;;;;;;;;21.70;50.80;;;;;;1539311;76;1104;-67
2023/04/12 02:35:43;;;;;;;;;;;21.70;50.80;;;;;;1536553;76;1905;-71
2023/04/12 02:37:48;;;;;;;;;;;21.70;50.80;;;;;;1547887;76;763;-66
2023/04/12 02:39:50;;;;;;;;;;;21.60;50.70;;;;;;1528466;76;840;-66
2023/04/12 02:41:52;;;;;;;;;;;21.60;50.70;;;;;;1546497;76;1614;-66
2023/04/12 02:43:54;;;;;;;;;;;21.70;50.90;;;;;;1552440;75;1197;-67
2023/04/12 02:45:56;;;;;;;;;;;21.60;50.90;;;;;;1545050;76;792;-66
2023/04/12 02:47:58;;;;;;;;;;;21.70;50.90;;;;;;1545712;75;799;-67
2023/04/12 02:49:59;;;;;;;;;;;21.60;50.80;;;;;;1549274;76;731;-66
2023/04/12 02:52:01;;;;;;;;;;;21.70;50.90;;;;;;1552910;76;599;-65
2023/04/12 02:54:04;;;;;;;;;;;21.70;51.10;;;;;;1545598;76;1156;-66
2023/04/12 02:56:07;;;;;;;;;;;21.70;51.00;;;;;;1544980;76;1914;-66
2023/04/12 02:58:09;;;;;;;;;;;21.70;50.90;;;;;;1536358;76;711;-66
2023/04/12 03:00:11;;;;;;;;;;;21.70;50.80;;;;;;1552382;76;671;-66
2023/04/12 03:02:13;;;;;;;;;;;21.70;50.80;;;;;;1549104;75;579;-66
2023/04/12 03:04:15;;;;;;;;;;;21.60;50.90;;;;;;1554595;74;1135;-67
2023/04/12 03:06:17;;;;;;;;;;;21.60;51.00;;;;;;1549132;76;664;-66
2023/04/12 03:08:19;;;;;;;;;;;21.60;50.90;;;;;;1551873;76;1341;-67
2023/04/12 03:10:21;;;;;;;;;;;21.70;50.90;;;;;;1534289;76;746;-67
2023/04/12 03:12:22;;;;;;;;;;;21.70;50.90;;;;;;1544776;76;652;-67
2023/04/12 03:14:24;;;;;;;;;;;21.70;50.80;;;;;;1552716;75;1080;-67
2023/04/12 03:16:28;;;;;;;;;;;21.70;50.70;;;;;;1545295;75;1949;-67
2023/04/12 03:18:30;;;;;;;;;;;21.70;50.70;;;;;;1568659;75;1460;-68
2023/04/12 03:20:32;;;;;;;;;;;21.70;50.80;;;;;;1550816;75;744;-68
2023/04/12 03:22:35;;;;;;;;;;;21.60;50.70;;;;;;1555478;75;1474;-68
2023/04/12 03:24:37;;;;;;;;;;;21.60;50.70;;;;;;1554599;75;1162;-67
2023/04/12 03:26:40;;;;;;;;;;;21.60;50.80;;;;;;1564054;75;787;-70
2023/04/12 03:28:42;;;;;;;;;;;21.60;50.90;;;;;;1566467;75;729;-69
2023/04/12 03:30:44;;;;;;;;;;;21.60;50.90;;;;;;1551434;74;702;-69
2023/04/12 03:32:46;;;;;;;;;;;21.70;51.00;;;;;;1553370;75;777;-69
2023/04/12 03:34:48;;;;;;;;;;;21.40;50.70;;;;;;1558012;74;1139;-69
2023/04/12 03:36:50;;;;;;;;;;;21.60;50.90;;;;;;1561102;75;1954;-69
2023/04/12 03:38:52;;;;;;;;;;;21.60;50.90;;;;;;1555744;75;837;-69
2023/04/12 03:40:54;;;;;;;;;;;21.60;50.90;;;;;;1561076;75;664;-69
2023/04/12 03:42:56;;;;;;;;;;;21.60;50.90;;;;;;1562927;75;739;-69
2023/04/12 03:44:58;;;;;;;;;;;21.60;50.80;;;;;;1562125;74;1167;-69
2023/04/12 03:47:00;;;;;;;;;;;21.60;50.90;;;;;;1555176;75;638;-69
2023/04/12 03:49:02;;;;;;;;;;;21.60;51.00;;;;;;1552630;75;590;-69
2023/04/12 03:51:07;;;;;;;;;;;21.60;50.90;;;;;;1550579;75;1332;-69
2023/04/12 03:53:07;;;;;;;;;;;21.60;51.00;;;;;;1553942;75;1653;-69
2023/04/12 03:55:11;;;;;;;;;;;21.60;51.10;;;;;;1561526;75;1074;-69
2023/04/12 03:57:12;;;;;;;;;;;21.60;51.10;;;;;;1558181;75;1928;-69
2023/04/12 03:59:14;;;;;;;;;;;21.60;51.10;;;;;;1550182;74;743;-67
2023/04/12 04:01:16;;;;;;;;;;;21.50;51.20;;;;;;1559121;74;792;-67
2023/04/12 04:03:18;;;;;;;;;;;21.50;51.40;;;;;;1559636;75;732;-67
2023/04/12 04:05:20;;;;;;;;;;;21.50;51.30;;;;;;1549949;75;1346;-68
2023/04/12 04:07:22;;;;;;;;;;;21.60;51.40;;;;;;1552199;75;633;-68
2023/04/12 04:09:24;;;;;;;;;;;21.60;51.10;;;;;;1551174;75;758;-68
2023/04/12 04:11:26;;;;;;;;;;;21.70;51.00;;;;;;1560732;75;782;-67
2023/04/12 04:13:28;;;;;;;;;;;21.70;51.00;;;;;;1555081;75;1143;-68
2023/04/12 04:15:31;;;;;;;;;;;21.70;50.90;;;;;;1558250;74;749;-68
2023/04/12 04:17:33;;;;;;;;;;;21.70;50.90;;;;;;1546277;75;2276;-68
2023/04/12 04:19:35;;;;;;;;;;;21.70;50.70;;;;;;1558000;75;1473;-67
2023/04/12 04:21:39;;;;;;;;;;;21.70;50.70;;;;;;1547962;75;774;-67
2023/04/12 04:23:43;;;;;;;;;;;21.70;50.70;;;;;;1544568;75;1639;-67
2023/04/12 04:25:45;;;;;;;;;;;21.70;50.70;;;;;;1547560;75;1524;-67
2023/04/12 04:27:48;;;;;;;;;;;21.70;50.70;;;;;;1545762;75;689;-67
2023/04/12 04:29:51;;;;;;;;;;;21.70;50.70;;;;;;1555069;74;723;-67
2023/04/12 04:31:53;;;;;;;;;;;21.70;50.70;;;;;;1549752;75;633;-67
2023/04/12 04:33:55;;;;;;;;;;;21.70;50.70;;;;;;1563401;74;1849;-67
2023/04/12 04:35:57;;;;;;;;;;;21.70;50.70;;;;;;1564070;75;737;-67
2023/04/12 04:38:03;;;;;;;;;;;21.70;50.70;;;;;;1560017;75;1928;-67
2023/04/12 04:40:10;;;;;;;;;;;21.70;50.70;;;;;;1543984;75;1246;-67
2023/04/12 04:42:12;;;;;;;;;;;21.70;50.60;;;;;;1542429;75;597;-67
2023/04/12 04:44:14;;;;;;;;;;;21.70;50.60;;;;;;1544093;74;1120;-67
2023/04/12 04:46:16;;;;;;;;;;;21.70;50.70;;;;;;1545687;75;747;-68
2023/04/12 04:48:18;;;;;;;;;;;21.70;50.60;;;;;;1540845;75;1583;-69
2023/04/12 04:50:21;;;;;;;;;;;21.70;50.60;;;;;;1549907;75;730;-69
2023/04/12 04:52:23;;;;;;;;;;;21.70;50.70;;;;;;1559600;75;1829;-70
2023/04/12 04:54:25;;;;;;;;;;;21.70;50.80;;;;;;1554531;74;1084;-69
2023/04/12 04:56:27;;;;;;;;;;;21.60;50.70;;;;;;1556377;75;1950;-70
2023/04/12 04:58:30;;;;;;;;;;;21.70;50.80;;;;;;1549420;74;655;-70
2023/04/12 05:00:34;;;;;;;;;;;21.60;50.80;;;;;;1560502;75;700;-68
2023/04/12 05:02:35;;;;;;;;;;;21.60;50.80;;;;;;1554383;75;1691;-68
2023/04/12 05:04:37;;;;;;;;;;;21.60;50.80;;;;;;1543886;75;1175;-67
2023/04/12 05:06:39;;;;;;;;;;;21.70;50.90;;;;;;1543335;75;819;-66
2023/04/12 05:08:41;;;;;;;;;;;21.60;50.70;;;;;;1550556;75;738;-66
2023/04/12 05:10:43;;;;;;;;;;;21.70;50.80;;;;;;1546599;75;753;-66
2023/04/12 05:12:45;;;;;;;;;;;21.70;50.70;;;;;;1561765;74;705;-66
2023/04/12 05:14:47;;;;;;;;;;;21.60;50.70;;;;;;1554930;75;1415;-66
2023/04/12 05:16:49;;;;;;;;;;;21.70;50.70;;;;;;1548450;75;1936;-66
2023/04/12 05:18:51;;;;;;;;;;;21.70;50.60;;;;;;1552501;75;1089;-67
2023/04/12 05:20:52;;;;;;;;;;;21.70;50.70;;;;;;1548181;75;728;-67
2023/04/12 05:22:54;;;;;;;;;;;21.70;50.70;;;;;;1557159;75;800;-68
2023/04/12 05:24:57;;;;;;;;;;;21.70;50.80;;;;;;1549044;75;1150;-68
2023/04/12 05:26:59;;;;;;;;;;;21.60;50.70;;;;;;1562912;74;729;-71
2023/04/12 05:29:01;;;;;;;;;;;21.70;50.80;;;;;;1561528;75;1538;-70
2023/04/12 05:31:03;;;;;;;;;;;21.70;50.80;;;;;;1565540;75;659;-68
2023/04/12 05:33:05;;;;;;;;;;;21.70;50.80;;;;;;1564489;75;667;-67
2023/04/12 05:35:07;;;;;;;;;;;21.70;50.80;;;;;;1567540;74;1101;-68
2023/04/12 05:37:09;;;;;;;;;;;21.70;50.70;;;;;;1565396;75;1949;-68
2023/04/12 05:39:11;;;;;;;;;;;21.70;50.90;;;;;;1554526;75;752;-68
2023/04/12 05:41:16;;;;;;;;;;;21.70;51.00;;;;;;1552549;75;725;-71
2023/04/12 05:43:18;;;;;;;;;;;21.70;51.10;;;;;;1547065;75;1532;-70
2023/04/12 05:45:20;;;;;;;;;;;21.70;51.00;;;;;;1546588;75;1147;-70
2023/04/12 05:47:21;;;;;;;;;;;21.70;51.00;;;;;;1545036;75;708;-71
2023/04/12 05:49:23;;;;;;;;;;;21.70;51.00;;;;;;1561648;75;738;-67
2023/04/12 05:51:25;;;;;;;;;;;21.70;51.00;;;;;;1564524;75;724;-67
2023/04/12 05:53:28;;;;;;;;;;;21.60;50.90;;;;;;1562192;75;1153;-68
2023/04/12 05:55:30;;;;;;;;;;;21.70;51.00;;;;;;1558310;75;752;-68
2023/04/12 05:57:32;;;;;;;;;;;21.70;50.90;;;;;;1558601;74;1948;-68
2023/04/12 05:59:34;;;;;;;;;;;21.70;50.80;;;;;;1558093;75;792;-67
2023/04/12 06:01:36;;;;;;;;;;;21.70;50.70;;;;;;1562106;75;603;-67
2023/04/12 06:03:40;;;;;;;;;;;21.70;50.70;;;;;;1549800;74;1154;-66
2023/04/12 06:05:41;;;;;;;;;;;21.70;50.60;;;;;;1555451;75;1637;-67
2023/04/12 06:07:49;;;;;;;;;;;21.70;50.70;;;;;;1568464;75;697;-67
2023/04/12 06:09:51;;;;;;;;;;;21.70;50.70;;;;;;1560643;75;674;-68
2023/04/12 06:11:53;;;;;;;;;;;21.70;51.00;;;;;;1566777;74;1525;-69
2023/04/12 06:13:54;;;;;;;;;;;21.70;51.60;;;;;;1554226;75;1156;-68
2023/04/12 06:15:56;;;;;;;;;;;21.70;51.20;;;;;;1550593;75;703;-67
2023/04/12 06:17:59;;;;;;;;;;;21.70;51.00;;;;;;1561084;75;1908;-66
2023/04/12 06:20:01;;;;;;;;;;;21.70;51.30;;;;;;1555016;75;1075;-70
2023/04/12 06:22:05;;;;;;;;;;;21.70;51.10;;;;;;1544716;75;1167;-67
2023/04/12 06:24:07;;;;;;;;;;;21.70;51.20;;;;;;1555523;75;1176;-69
2023/04/12 06:26:09;;;;;;;;;;;21.70;51.10;;;;;;1555039;74;1634;-66
2023/04/12 06:28:11;;;;;;;;;;;21.70;51.20;;;;;;1548229;75;710;-68
2023/04/12 06:30:13;;;;;;;;;;;21.70;51.30;;;;;;1558619;75;696;-67
2023/04/12 06:32:15;;;;;;;;;;;21.60;51.10;;;;;;1549914;75;800;-69
2023/04/12 06:34:17;;;;;;;;;;;21.70;51.20;;;;;;1546029;75;1059;-68
2023/04/12 06:36:18;;;;;;;;;;;21.70;51.30;;;;;;1546970;75;647;-68
2023/04/12 06:38:20;;;;;;;;;;;21.70;51.10;;;;;;1539002;75;1944;-68
2023/04/12 06:40:22;;;;;;;;;;;21.80;50.90;;;;;;1557182;74;1312;-68
2023/04/12 06:42:24;;;;;;;;;;;21.70;50.70;;;;;;1563989;75;732;-69
2023/04/12 06:44:26;;;;;;;;;;;21.80;50.70;;;;;;1540918;75;1152;-68
2023/04/12 06:46:28;;;;;;;;;;;21.80;50.50;;;;;;1554010;75;661;-68
2023/04/12 06:48:30;;;;;;;;;;;21.80;50.40;;;;;;1551534;75;703;-68
2023/04/12 06:50:32;;;;;;;;;;;21.80;50.40;;;;;;1571365;75;734;-67
2023/04/12 06:52:34;;;;;;;;;;;21.80;50.30;;;;;;1567109;75;723;-65
2023/04/12 06:54:37;;;;;;;;;;;21.80;50.20;;;;;;1555368;74;1588;-67
2023/04/12 06:56:39;;;;;;;;;;;21.70;50.20;;;;;;1559055;75;714;-68
2023/04/12 06:58:41;;;;;;;;;;;21.70;50.20;;;;;;1556838;75;1916;-69
2023/04/12 07:00:43;;;;;;;;;;;21.70;50.40;;;;;;1550864;75;796;-69
2023/04/12 07:02:45;;;;;;;;;;;21.80;50.40;;;;;;1557325;75;666;-69
2023/04/12 07:04:49;;;;;;;;;;;21.80;50.50;;;;;;1540650;75;1161;-69
2023/04/12 07:06:51;;;;;;;;;;;21.70;50.50;;;;;;1553080;75;2019;-69
2023/04/12 07:08:53;;;;;;;;;;;21.70;50.60;;;;;;1554343;75;1607;-69
2023/04/12 07:10:55;;;;;;;;;;;21.70;50.60;;;;;;1541423;74;716;-68
2023/04/12 07:13:01;;;;;;;;;;;21.70;50.70;;;;;;1555359;75;721;-68
2023/04/12 07:15:00;;;;;;;;;;;21.70;50.70;;;;;;1553134;75;1537;-68
2023/04/12 07:17:02;;;;;;;;;;;21.70;50.70;;;;;;1552754;75;1919;-69
2023/04/12 07:19:04;;;;;;;;;;;21.80;50.70;;;;;;1553057;75;1096;-70
2023/04/12 07:21:06;;;;;;;;;;;21.70;51.20;;;;;;1557114;75;671;-68
2023/04/12 07:23:08;;;;;;;;;;;21.60;51.20;;;;;;1555541;75;1524;-65
2023/04/12 07:25:10;;;;;;;;;;;21.60;52.00;;;;;;1559293;74;1166;-68
2023/04/12 07:27:11;;;;;;;;;;;21.60;52.30;;;;;;1554777;75;723;-67
2023/04/12 07:29:13;;;;;;;;;;;21.50;52.30;;;;;;1558488;75;658;-66
2023/04/12 07:31:15;;;;;;;;;;;21.50;52.10;;;;;;1558201;75;798;-66
2023/04/12 07:33:17;;;;;;;;;;;21.60;52.00;;;;;;1562248;75;753;-66
2023/04/12 07:35:19;;;;;;;;;;;21.60;51.80;;;;;;1557338;75;1135;-65
2023/04/12 07:37:21;;;;;;;;;;;21.60;51.70;;;;;;1559274;75;2086;-65
2023/04/12 07:39:23;;;;;;;;;;;21.70;51.50;;;;;;1563120;74;776;-65
2023/04/12 07:41:25;;;;;;;;;;;21.70;51.40;;;;;;1545783;75;633;-64
2023/04/12 07:43:27;;;;;;;;;;;21.70;51.20;;;;;;1546925;75;1154;-65
2023/04/12 07:45:29;;;;;;;;;;;21.70;51.10;;;;;;1541235;75;721;-62
2023/04/12 07:47:31;;;;;;;;;;;21.70;51.00;;;;;;1559538;75;735;-64
2023/04/12 07:49:33;;;;;;;;;;;21.70;51.20;;;;;;1557973;75;1543;-64
2023/04/12 07:51:35;;;;;;;;;;;21.70;51.10;;;;;;1549425;75;720;-64
2023/04/12 07:53:37;;;;;;;;;;;21.70;51.00;;;;;;1552445;75;1139;-61
2023/04/12 07:55:39;;;;;;;;;;;21.70;51.00;;;;;;1558880;74;652;-63
2023/04/12 07:57:41;;;;;;;;;;;21.60;51.00;;;;;;1542938;75;1921;-62
2023/04/12 07:59:43;;;;;;;;;;;21.60;51.20;;;;;;1544884;75;735;-63
2023/04/12 08:01:45;;;;;;;;;;;21.60;51.30;;;;;;1559755;75;864;-64
2023/04/12 08:03:47;;;;;;;;;;;21.60;51.10;;;;;;1558399;75;1609;-63
2023/04/12 08:05:52;;;;;;;;;;;21.70;51.10;;;;;;1553884;75;730;-63
2023/04/12 08:07:52;;;;;;;;;;;21.60;51.20;;;;;;1563441;75;993;-64
2023/04/12 08:09:55;;;;;;;;;;;21.60;51.20;;;;;;1556398;74;715;-62
2023/04/12 08:11:57;;;;;;;;;;;21.50;51.10;;;;;;1545871;75;743;-63
2023/04/12 08:13:59;;;;;;;;;;;21.50;51.20;;;;;;1546729;75;1207;-63
2023/04/12 08:16:01;;;;;;;;;;;21.50;51.10;;;;;;1516637;76;724;-62
2023/04/12 08:18:03;;;;;;;;;;;21.50;51.00;;;;;;1547305;75;1935;-63
2023/04/12 08:20:05;;;;;;;;;;;21.50;50.90;;;;;;1559458;75;1100;-66
2023/04/12 08:22:07;;;;;;;;;;;21.50;51.00;;;;;;1551043;75;763;-64
2023/04/12 08:24:09;;;;;;;;;;;21.50;50.90;;;;;;1558606;74;1190;-64
2023/04/12 08:26:11;;;;;;;;;;;21.50;50.90;;;;;;1533067;75;765;-64
2023/04/12 08:28:13;;;;;;;;;;;21.50;50.70;;;;;;1512637;77;752;-64
2023/04/12 08:30:14;;;;;;;;;;;21.50;50.80;;;;;;1547800;75;723;-63
2023/04/12 08:32:16;;;;;;;;;;;21.50;50.70;;;;;;1546774;75;1537;-63
2023/04/12 08:34:21;;;;;;;;;;;21.50;50.60;;;;;;1547902;75;1154;-63
2023/04/12 08:36:22;;;;;;;;;;;21.40;50.50;;;;;;1541193;75;1671;-63
2023/04/12 08:38:24;;;;;;;;;;;21.50;50.60;;;;;;1548344;75;1931;-64
2023/04/12 08:40:26;;;;;;;;;;;21.50;50.60;;;;;;1538782;74;652;-65
2023/04/12 08:42:29;;;;;;;;;;;21.50;50.50;;;;;;1555513;75;695;-61
2023/04/12 08:44:37;;;;;;;;;;;21.50;50.50;;;;;;1547758;75;1103;-63
2023/04/12 08:46:39;;;;;;;;;;;21.50;50.50;;;;;;1559975;75;1555;-63
2023/04/12 08:48:42;;;;;;;;;;;21.50;50.50;;;;;;1537600;75;696;-63
2023/04/12 08:50:44;;;;;;;;;;;21.50;50.50;;;;;;1551286;75;787;-62
2023/04/12 08:52:46;;;;;;;;;;;21.50;50.50;;;;;;1542930;75;748;-64
2023/04/12 08:54:48;;;;;;;;;;;21.50;50.40;;;;;;1565831;74;1126;-62
2023/04/12 08:56:51;;;;;;;;;;;21.50;50.40;;;;;;1560791;75;757;-63
2023/04/12 08:58:53;;;;;;;;;;;21.50;50.40;;;;;;1543722;75;1924;-63
2023/04/12 09:00:55;;;;;;;;;;;21.50;50.40;;;;;;1558908;75;1563;-63
2023/04/12 09:02:57;;;;;;;;;;;21.60;50.30;;;;;;1550606;75;780;-63
2023/04/12 09:04:59;;;;;;;;;;;21.60;50.30;;;;;;1535860;75;1145;-63
2023/04/12 09:07:01;;;;;;;;;;;21.50;50.30;;;;;;1553218;75;706;-63
2023/04/12 09:09:05;;;;;;;;;;;21.60;50.20;;;;;;1550307;74;759;-62
2023/04/12 09:11:24;;;;;;;;;;;21.60;50.20;;;;;;1556991;75;717;-62
2023/04/12 09:13:30;;;;;;;;;;;21.50;50.20;;;;;;1548199;75;1633;-62
2023/04/12 09:15:34;;;;;;;;;;;21.60;50.20;;;;;;1550186;75;1770;-63
2023/04/12 09:17:37;;;;;;;;;;;21.40;50.10;;;;;;1542389;75;1119;-64
2023/04/12 09:19:39;;;;;;;;;;;21.60;50.10;;;;;;1559086;75;1914;-63
2023/04/12 09:21:53;;;;;;;;;;;21.60;50.20;;;;;;1520340;76;1101;-63
2023/04/12 09:24:04;;;;;;;;;;;21.50;50.10;;;;;;1515975;77;1193;-64
2023/04/12 09:26:07;;;;;;;;;;;21.50;50.10;;;;;;1532152;77;1062;-62
2023/04/12 09:28:13;;;;;;;;;;;21.50;50.10;;;;;;1520866;77;1552;-63
2023/04/12 09:30:16;;;;;;;;;;;21.60;50.00;;;;;;1503971;77;1781;-63
2023/04/12 09:32:26;;;;;;;;;;;21.60;50.00;;;;;;1505160;77;708;-63
2023/04/12 09:34:28;;;;;;;;;;;21.60;50.00;;;;;;1524238;77;1101;-64
2023/04/12 09:36:31;;;;;;;;;;;21.60;50.00;;;;;;1515960;75;798;-64
2023/04/12 09:38:36;;;;;;;;;;;21.60;49.90;;;;;;1530488;77;1938;-63
2023/04/12 09:40:37;;;;;;;;;;;21.60;49.90;;;;;;1508145;77;1678;-63
2023/04/12 09:42:43;;;;;;;;;;;21.60;49.90;;;;;;1520199;77;1530;-63
2023/04/12 09:44:45;;;;;;;;;;;21.60;49.80;;;;;;1531991;75;1724;-63
2023/04/12 09:46:50;;;;;;;;;;;21.60;49.90;;;;;;1515070;77;785;-63
2023/04/12 09:48:53;;;;;;;;;;;21.60;49.90;;;;;;1515520;77;898;-62
2023/04/12 09:50:57;;;;;;;;;;;21.60;49.80;;;;;;1525515;77;717;-63
2023/04/12 09:52:59;;;;;;;;;;;21.60;49.70;;;;;;1515276;77;1033;-63
2023/04/12 09:55:01;;;;;;;;;;;21.70;49.80;;;;;;1518075;76;1100;-63
2023/04/12 09:57:04;;;;;;;;;;;21.70;49.70;;;;;;1514283;77;1505;-63
2023/04/12 09:59:06;;;;;;;;;;;21.70;49.70;;;;;;1517723;77;1909;-63
2023/04/12 10:01:08;;;;;;;;;;;21.70;49.70;;;;;;1539812;77;704;-64
2023/04/12 10:03:11;;;;;;;;;;;21.70;49.60;;;;;;1519526;77;750;-63
2023/04/12 10:05:13;;;;;;;;;;;21.70;49.60;;;;;;1485730;78;1133;-62
2023/04/12 10:07:15;;;;;;;;;;;21.70;49.60;;;;;;1508828;77;754;-64
2023/04/12 10:09:17;;;;;;;;;;;21.70;49.70;;;;;;1513094;77;711;-63
2023/04/12 10:11:19;;;;;;;;;;;21.70;49.70;;;;;;1528897;77;1558;-64
2023/04/12 10:13:21;;;;;;;;;;;21.70;49.60;;;;;;1518872;76;790;-62
2023/04/12 10:15:24;;;;;;;;;;;21.70;49.60;;;;;;1504535;76;1169;-63
2023/04/12 10:17:26;;;;;;;;;;;21.70;49.50;;;;;;1516067;76;807;-63
2023/04/12 10:19:28;;;;;;;;;;;21.80;49.50;;;;;;1518018;77;1928;-63
2023/04/12 10:21:30;;;;;;;;;;;21.70;49.40;;;;;;1533777;75;1099;-64
2023/04/12 10:23:32;;;;;;;;;;;21.70;49.40;;;;;;1531505;76;1126;-63
2023/04/12 10:25:34;;;;;;;;;;;21.70;49.50;;;;;;1532803;76;1270;-63
2023/04/12 10:27:36;;;;;;;;;;;21.80;49.40;;;;;;1541640;76;806;-63
2023/04/12 10:29:40;;;;;;;;;;;21.70;49.40;;;;;;1534808;76;682;-63
2023/04/12 10:31:42;;;;;;;;;;;21.80;49.30;;;;;;1554928;76;890;-63
2023/04/12 10:33:44;;;;;;;;;;;21.80;49.30;;;;;;1532598;75;1139;-62
2023/04/12 10:35:59;;;;;;;;;;;21.70;49.30;;;;;;1541790;75;761;-63
2023/04/12 10:38:01;;;;;;;;;;;21.70;49.30;;;;;;1539665;76;821;-64
2023/04/12 10:40:03;;;;;;;;;;;21.60;49.20;;;;;;1551341;76;1910;-62
2023/04/12 10:42:07;;;;;;;;;;;21.70;49.30;;;;;;1537209;75;760;-63
2023/04/12 10:44:29;;;;;;;;;;;21.70;49.20;;;;;;1533559;76;1896;-62
2023/04/12 10:46:41;;;;;;;;;;;21.70;49.20;;;;;;1540639;76;1415;-64
2023/04/12 10:48:52;;;;;;;;;;;21.70;49.20;;;;;;1544319;76;806;-62
2023/04/12 10:51:25;;;;;;;;;;;21.70;49.10;;;;;;1551479;75;703;-63
2023/04/12 10:53:27;;;;;;;;;;;21.70;49.10;;;;;;1539233;76;1557;-64
2023/04/12 10:55:31;;;;;;;;;;;21.70;49.00;;;;;;1550561;76;793;-63
2023/04/12 10:57:48;;;;;;;;;;;21.70;49.10;;;;;;1545533;76;720;-63
2023/04/12 10:59:54;;;;;;;;;;;21.80;49.10;;;;;;1547055;76;1931;-63
2023/04/12 11:02:06;;;;;;;;;;;21.70;49.00;;;;;;1544748;76;1659;-63
2023/04/12 11:04:15;;;;;;;;;;;21.80;49.00;;;;;;1532165;75;1157;-63
2023/04/12 11:06:17;;;;;;;;;;;21.80;48.90;;;;;;1538862;76;750;-63
2023/04/12 11:08:19;;;;;;;;;;;21.80;48.90;;;;;;1544485;76;727;-62
2023/04/12 11:10:21;;;;;;;;;;;21.80;48.90;;;;;;1549436;76;787;-64
2023/04/12 11:12:23;;;;;;;;;;;21.80;48.90;;;;;;1546896;76;777;-62
2023/04/12 11:14:29;;;;;;;;;;;21.80;48.80;;;;;;1520227;76;1177;-63
2023/04/12 11:16:31;;;;;;;;;;;21.80;48.80;;;;;;1533916;76;721;-63
2023/04/12 11:18:34;;;;;;;;;;;21.80;48.80;;;;;;1546393;75;1940;-63
2023/04/12 11:20:36;;;;;;;;;;;21.80;48.70;;;;;;1549766;76;1343;-63
2023/04/12 11:22:39;;;;;;;;;;;21.80;48.70;;;;;;1521023;77;1291;-62
2023/04/12 11:24:42;;;;;;;;;;;21.80;48.70;;;;;;1531728;76;1199;-62
2023/04/12 11:26:44;;;;;;;;;;;21.80;48.70;;;;;;1548958;76;1025;-63
2023/04/12 11:28:47;;;;;;;;;;;21.80;48.70;;;;;;1549632;76;731;-64
2023/04/12 11:30:53;;;;;;;;;;;21.80;48.70;;;;;;1551415;76;753;-63
2023/04/12 11:32:55;;;;;;;;;;;21.80;48.70;;;;;;1534436;76;1792;-63
2023/04/12 11:34:57;;;;;;;;;;;21.80;48.60;;;;;;1552146;75;1619;-63
2023/04/12 11:36:59;;;;;;;;;;;21.80;48.70;;;;;;1552423;76;755;-63
2023/04/12 11:39:01;;;;;;;;;;;21.80;48.60;;;;;;1554690;76;1946;-63
2023/04/12 11:41:04;;;;;;;;;;;21.80;48.70;;;;;;1547838;76;753;-63
2023/04/12 11:43:06;;;;;;;;;;;21.80;48.70;;;;;;1545499;76;809;-63
2023/04/12 11:45:10;;;;;;;;;;;21.80;48.60;;;;;;1542619;76;1121;-63
2023/04/12 11:47:19;;;;;;;;;;;21.80;48.70;;;;;;1553078;76;692;-63
2023/04/12 11:49:22;;;;;;;;;;;21.90;48.80;;;;;;1546336;75;1860;-63
2023/04/12 11:51:25;;;;;;;;;;;21.80;48.60;;;;;;1550246;76;808;-64
2023/04/12 11:53:30;;;;;;;;;;;21.80;48.70;;;;;;1548821;76;1113;-64
2023/04/12 11:55:32;;;;;;;;;;;21.90;48.70;;;;;;1549243;76;801;-64
2023/04/12 11:57:34;;;;;;;;;;;21.80;48.60;;;;;;1544211;75;1099;-64
2023/04/12 11:59:36;;;;;;;;;;;21.80;48.70;;;;;;1532360;75;1918;-63
2023/04/12 12:01:39;;;;;;;;;;;21.80;48.60;;;;;;1532197;75;1382;-62
2023/04/12 12:03:41;;;;;;;;;;;21.80;48.60;;;;;;1517946;76;1535;-62
2023/04/12 12:05:43;;;;;;;;;;;21.80;48.70;;;;;;1521891;76;1501;-63
2023/04/12 12:07:45;;;;;;;;;;;21.70;48.70;;;;;;1517891;76;1087;-64
2023/04/12 12:09:47;;;;;;;;;;;21.80;48.70;;;;;;1518332;77;1425;-63
2023/04/12 12:11:48;;;;;;;;;;;21.80;48.70;;;;;;1492766;78;1527;-64